createdAt,value
2023-04-07T00:01:54.736Z,6.07
2023-04-07T00:04:22.852Z,7.93
2023-04-07T00:06:52.314Z,10.00
2023-04-07T00:09:20.318Z,7.10
2023-04-07T00:11:48.898Z,7.67
2023-04-07T00:14:16.793Z,8.27
2023-04-07T00:16:44.721Z,7.70
2023-04-07T00:19:12.712Z,10.43
2023-04-07T00:21:41.242Z,7.97
2023-04-07T00:24:10.854Z,8.80
2023-04-07T00:26:39.537Z,6.97
2023-04-07T00:29:07.457Z,7.30
2023-04-07T00:31:35.457Z,8.40
2023-04-07T00:34:03.377Z,5.33
2023-04-07T00:36:31.662Z,6.37
2023-04-07T00:38:59.613Z,20.03
2023-04-07T00:41:29.035Z,7.47
2023-04-07T00:43:56.940Z,7.77
2023-04-07T00:46:25.157Z,6.23
2023-04-07T00:48:53.109Z,7.23
2023-04-07T00:51:22.303Z,7.77
2023-04-07T00:53:50.457Z,9.03
2023-04-07T00:56:18.402Z,12.07
2023-04-07T00:58:47.853Z,12.87
2023-04-07T01:01:18.036Z,9.23
2023-04-07T01:03:47.631Z,9.00
2023-04-07T01:06:17.423Z,12.27
2023-04-07T01:08:51.518Z,7.87
2023-04-07T01:11:21.883Z,8.53
2023-04-07T01:13:52.218Z,6.60
2023-04-07T01:16:24.377Z,6.70
2023-04-07T01:18:53.653Z,7.97
2023-04-07T01:21:21.758Z,6.77
2023-04-07T01:23:57.509Z,5.80
2023-04-07T01:26:27.829Z,9.57
2023-04-07T01:29:12.636Z,9.83
2023-04-07T01:31:43.305Z,8.00
2023-04-07T01:34:12.060Z,5.73
2023-04-07T01:36:40.151Z,5.83
2023-04-07T01:39:08.754Z,12.33
2023-04-07T01:41:36.787Z,7.53
2023-04-07T01:44:05.313Z,8.13
2023-04-07T01:46:33.420Z,6.67
2023-04-07T01:49:03.326Z,8.23
2023-04-07T01:51:31.959Z,13.17
2023-04-07T01:54:00.436Z,7.47
2023-04-07T01:56:28.474Z,9.13
2023-04-07T01:58:56.518Z,8.80
2023-04-07T02:01:24.469Z,6.50
2023-04-07T02:03:55.627Z,7.27
2023-04-07T02:06:29.030Z,8.33
2023-04-07T02:09:00.417Z,5.70
2023-04-07T02:11:28.740Z,7.10
2023-04-07T02:13:56.830Z,5.87
2023-04-07T02:16:25.537Z,5.83
2023-04-07T02:18:53.926Z,7.13
2023-04-07T02:21:22.974Z,5.83
2023-04-07T02:23:52.750Z,5.10
2023-04-07T02:26:20.740Z,7.00
2023-04-07T02:28:48.619Z,7.47
2023-04-07T02:31:16.615Z,8.10
2023-04-07T02:33:44.571Z,11.60
2023-04-07T02:36:12.527Z,10.37
2023-04-07T02:38:40.498Z,10.80
2023-04-07T02:41:09.816Z,8.23
2023-04-07T02:43:37.743Z,8.87
2023-04-07T02:46:05.830Z,6.90
2023-04-07T02:48:33.760Z,8.17
2023-04-07T02:51:01.681Z,8.23
2023-04-07T02:53:29.750Z,8.93
2023-04-07T02:55:57.684Z,6.10
2023-04-07T02:58:26.987Z,7.43
2023-04-07T03:00:54.914Z,10.63
2023-04-07T03:03:23.139Z,5.50
2023-04-07T03:05:51.164Z,7.53
2023-04-07T03:08:19.037Z,6.67
2023-04-07T03:10:46.965Z,7.33
2023-04-07T03:13:16.595Z,5.60
2023-04-07T03:15:45.956Z,9.33
2023-04-07T03:18:14.013Z,5.63
2023-04-07T03:20:42.641Z,9.93
2023-04-07T03:23:10.516Z,7.37
2023-04-07T03:25:38.634Z,8.23
2023-04-07T03:28:06.824Z,9.90
2023-04-07T03:30:34.767Z,6.80
2023-04-07T03:33:04.311Z,7.10
2023-04-07T03:35:32.331Z,6.10
2023-04-07T03:38:00.252Z,7.03
2023-04-07T03:40:28.246Z,11.07
2023-04-07T03:42:56.172Z,8.30
2023-04-07T03:45:24.082Z,8.43
2023-04-07T03:47:52.128Z,6.17
2023-04-07T03:50:21.600Z,8.87
2023-04-07T03:52:49.558Z,8.90
2023-04-07T03:55:17.537Z,4.50
2023-04-07T03:57:45.568Z,7.57
2023-04-07T04:00:14.287Z,7.20
2023-04-07T04:02:42.686Z,8.77
2023-04-07T04:05:10.857Z,9.33
2023-04-07T04:07:40.165Z,15.83
2023-04-07T04:10:08.765Z,6.33
2023-04-07T04:12:36.757Z,6.83
2023-04-07T04:15:04.823Z,6.93
2023-04-07T04:17:32.802Z,4.67
2023-04-07T04:20:00.838Z,7.53
2023-04-07T04:22:28.752Z,7.37
2023-04-07T04:24:58.626Z,7.33
2023-04-07T04:27:26.670Z,7.27
2023-04-07T04:29:55.147Z,5.43
2023-04-07T04:32:23.270Z,7.30
2023-04-07T04:34:51.449Z,7.47
2023-04-07T04:37:19.358Z,7.13
2023-04-07T04:39:47.351Z,5.53
2023-04-07T04:42:17.727Z,6.13
2023-04-07T04:44:45.667Z,6.23
2023-04-07T04:47:13.687Z,4.27
2023-04-07T04:49:41.632Z,8.13
2023-04-07T04:52:09.507Z,5.87
2023-04-07T04:54:37.466Z,5.27
2023-04-07T04:57:05.452Z,7.40
2023-04-07T04:59:35.014Z,5.97
2023-04-07T05:02:03.085Z,6.70
2023-04-07T05:04:31.381Z,5.93
2023-04-07T05:06:59.504Z,4.83
2023-04-07T05:09:27.569Z,6.00
2023-04-07T05:11:55.944Z,6.93
2023-04-07T05:14:23.856Z,7.10
2023-04-07T05:16:54.444Z,5.87
2023-04-07T05:19:22.355Z,10.63
2023-04-07T05:21:50.321Z,6.63
2023-04-07T05:24:18.299Z,7.60
2023-04-07T05:26:46.331Z,5.67
2023-04-07T05:29:14.212Z,6.00
2023-04-07T05:31:42.140Z,5.83
2023-04-07T05:34:11.678Z,7.03
2023-04-07T05:36:39.615Z,11.23
2023-04-07T05:39:07.553Z,5.87
2023-04-07T05:41:35.465Z,6.87
2023-04-07T05:44:03.346Z,7.53
2023-04-07T05:46:31.255Z,4.40
2023-04-07T05:49:04.613Z,3.07
2023-04-07T05:51:42.573Z,8.73
2023-04-07T05:54:10.853Z,6.17
2023-04-07T05:56:38.803Z,7.10
2023-04-07T05:59:06.680Z,2.80
2023-04-07T06:01:34.645Z,7.03
2023-04-07T06:04:03.655Z,3.60
2023-04-07T06:06:31.932Z,2.60
2023-04-07T06:09:01.450Z,4.80
2023-04-07T06:11:29.572Z,5.53
2023-04-07T06:13:57.496Z,4.17
2023-04-07T06:16:25.603Z,6.50
2023-04-07T06:18:53.603Z,4.20
2023-04-07T06:21:21.481Z,12.70
2023-04-07T06:23:49.647Z,9.87
2023-04-07T06:26:19.158Z,5.60
2023-04-07T06:28:47.071Z,4.77
2023-04-07T06:31:15.031Z,5.77
2023-04-07T06:33:43.126Z,7.80
2023-04-07T06:36:11.546Z,7.13
2023-04-07T06:38:39.896Z,5.43
2023-04-07T06:41:08.807Z,4.10
2023-04-07T06:43:38.279Z,5.17
2023-04-07T06:46:06.384Z,3.97
2023-04-07T06:48:34.352Z,2.80
2023-04-07T06:51:02.329Z,2.73
2023-04-07T06:53:30.279Z,3.87
2023-04-07T06:56:07.737Z,3.40
2023-04-07T06:58:37.894Z,4.13
2023-04-07T07:01:06.512Z,2.53
2023-04-07T07:03:34.761Z,3.50
2023-04-07T07:06:03.387Z,5.47
2023-04-07T07:08:31.673Z,2.60
2023-04-07T07:10:59.810Z,3.30
2023-04-07T07:13:28.359Z,3.40
2023-04-07T07:15:57.909Z,2.47
2023-04-07T07:18:26.015Z,3.17
2023-04-07T07:20:54.083Z,2.90
2023-04-07T07:23:22.053Z,3.70
2023-04-07T07:25:49.947Z,5.27
2023-04-07T07:28:18.676Z,5.53
2023-04-07T07:30:46.607Z,3.10
2023-04-07T07:33:15.963Z,4.43
2023-04-07T07:35:44.104Z,4.27
2023-04-07T07:38:12.462Z,4.03
2023-04-07T07:40:40.527Z,5.57
2023-04-07T07:43:08.559Z,5.77
2023-04-07T07:45:36.604Z,2.87
2023-04-07T07:48:04.617Z,2.57
2023-04-07T07:50:34.196Z,5.73
2023-04-07T07:53:02.253Z,3.07
2023-04-07T07:55:30.431Z,7.87
2023-04-07T07:57:58.531Z,3.33
2023-04-07T08:00:26.619Z,2.80
2023-04-07T08:02:54.991Z,2.07
2023-04-07T08:05:23.175Z,6.77
2023-04-07T08:07:54.703Z,4.37
2023-04-07T08:10:23.508Z,2.57
2023-04-07T08:12:51.661Z,1.53
2023-04-07T08:15:19.601Z,3.57
2023-04-07T08:17:47.646Z,3.83
2023-04-07T08:20:16.487Z,1.90
2023-04-07T08:22:44.418Z,2.10
2023-04-07T08:25:13.785Z,1.30
2023-04-07T08:27:41.714Z,2.57
2023-04-07T08:30:09.864Z,4.13
2023-04-07T08:32:38.537Z,2.67
2023-04-07T08:35:06.917Z,3.17
2023-04-07T08:37:36.140Z,2.07
2023-04-07T08:40:04.886Z,3.63
2023-04-07T08:42:35.232Z,2.10
2023-04-07T08:45:04.896Z,1.93
2023-04-07T08:47:34.145Z,4.20
2023-04-07T08:50:03.801Z,3.10
2023-04-07T08:52:35.059Z,1.63
2023-04-07T08:55:07.160Z,5.37
2023-04-07T08:57:36.742Z,1.20
2023-04-07T09:00:06.174Z,3.10
2023-04-07T09:02:35.264Z,4.63
2023-04-07T09:05:04.826Z,1.93
2023-04-07T09:07:33.407Z,2.27
2023-04-07T09:10:01.759Z,1.00
2023-04-07T09:12:30.406Z,1.27
2023-04-07T09:15:00.024Z,1.70
2023-04-07T09:17:28.544Z,1.73
2023-04-07T09:19:57.963Z,3.70
2023-04-07T09:22:38.854Z,2.67
2023-04-07T09:25:17.182Z,2.23
2023-04-07T09:27:58.264Z,4.27
2023-04-07T09:30:28.364Z,1.33
2023-04-07T09:32:56.748Z,2.60
2023-04-07T09:35:25.248Z,1.13
2023-04-07T09:38:06.348Z,1.87
2023-04-07T09:40:34.884Z,1.70
2023-04-07T09:43:03.344Z,2.60
2023-04-07T09:45:36.599Z,2.27
2023-04-07T09:48:09.220Z,3.53
2023-04-07T09:50:38.500Z,2.77
2023-04-07T09:53:06.547Z,2.53
2023-04-07T09:55:35.232Z,1.80
2023-04-07T09:58:03.605Z,2.57
2023-04-07T10:00:33.335Z,1.33
2023-04-07T10:03:02.022Z,3.10
2023-04-07T10:05:30.348Z,1.17
2023-04-07T10:07:58.321Z,2.87
2023-04-07T10:10:27.220Z,1.13
2023-04-07T10:12:55.475Z,1.27
2023-04-07T10:15:23.559Z,0.80
2023-04-07T10:17:53.243Z,2.63
2023-04-07T10:20:21.848Z,4.63
2023-04-07T10:22:51.576Z,1.90
2023-04-07T10:25:20.944Z,2.80
2023-04-07T10:27:53.691Z,1.50
2023-04-07T10:30:23.504Z,1.60
2023-04-07T10:32:54.273Z,1.70
2023-04-07T10:35:22.488Z,1.80
2023-04-07T10:38:08.945Z,0.80
2023-04-07T10:40:37.556Z,2.37
2023-04-07T10:43:09.639Z,1.50
2023-04-07T10:45:53.796Z,1.40
2023-04-07T10:48:23.637Z,3.00
2023-04-07T10:51:12.692Z,3.57
2023-04-07T10:54:00.617Z,3.37
2023-04-07T10:56:28.498Z,2.93
2023-04-07T10:59:15.422Z,4.20
2023-04-07T11:01:43.498Z,3.57
2023-04-07T11:04:13.090Z,2.50
2023-04-07T11:06:48.207Z,1.43
2023-04-07T11:09:20.600Z,2.77
2023-04-07T11:11:48.895Z,0.80
2023-04-07T11:14:27.163Z,3.43
2023-04-07T11:16:55.046Z,1.53
2023-04-07T11:19:24.389Z,2.40
2023-04-07T11:21:52.458Z,5.00
2023-04-07T11:24:37.812Z,3.37
2023-04-07T11:27:06.842Z,2.63
2023-04-07T11:29:35.329Z,0.80
2023-04-07T11:32:03.741Z,1.77
2023-04-07T11:34:33.945Z,0.87
2023-04-07T11:37:16.658Z,2.03
2023-04-07T11:39:46.444Z,1.10
2023-04-07T11:42:14.313Z,2.70
2023-04-07T11:44:46.641Z,4.40
2023-04-07T11:47:14.721Z,3.03
2023-04-07T11:49:47.540Z,4.27
2023-04-07T11:52:15.572Z,2.40
2023-04-07T11:54:43.595Z,3.50
2023-04-07T11:57:12.985Z,2.43
2023-04-07T11:59:41.494Z,3.67
2023-04-07T12:02:09.743Z,2.83
2023-04-07T12:04:40.996Z,2.40
2023-04-07T12:07:10.958Z,2.80
2023-04-07T12:09:39.036Z,1.87
2023-04-07T12:12:08.029Z,1.57
2023-04-07T12:14:36.249Z,2.10
2023-04-07T12:17:04.575Z,1.13
2023-04-07T12:19:34.990Z,1.47
2023-04-07T12:22:02.972Z,2.93
2023-04-07T12:24:33.525Z,1.40
2023-04-07T12:27:01.587Z,2.43
2023-04-07T12:29:30.144Z,2.00
2023-04-07T12:31:58.165Z,1.67
2023-04-07T12:34:26.152Z,2.27
2023-04-07T12:36:54.058Z,1.30
2023-04-07T12:39:22.395Z,0.60
2023-04-07T12:41:53.423Z,0.67
2023-04-07T12:44:21.383Z,4.40
2023-04-07T12:46:49.264Z,2.90
2023-04-07T12:49:17.516Z,21.00
2023-04-07T12:51:46.088Z,3.80
2023-04-07T12:54:15.124Z,4.47
2023-04-07T12:56:42.987Z,3.87
2023-04-07T12:59:12.294Z,2.40
2023-04-07T13:01:40.632Z,1.23
2023-04-07T13:04:08.771Z,0.90
2023-04-07T13:06:36.817Z,1.40
2023-04-07T13:09:04.843Z,2.13
2023-04-07T13:11:32.714Z,1.17
2023-04-07T13:14:01.514Z,1.93
2023-04-07T13:16:31.691Z,2.63
2023-04-07T13:18:59.706Z,1.00
2023-04-07T13:21:45.670Z,0.77
2023-04-07T13:24:15.077Z,0.87
2023-04-07T13:26:43.061Z,1.87
2023-04-07T13:29:10.996Z,4.17
2023-04-07T13:31:40.371Z,3.03
2023-04-07T13:34:08.428Z,1.70
2023-04-07T13:36:36.369Z,3.03
2023-04-07T13:39:04.498Z,2.77
2023-04-07T13:41:32.404Z,1.80
2023-04-07T13:44:01.008Z,3.40
2023-04-07T13:46:30.386Z,1.33
2023-04-07T13:48:59.716Z,1.90
2023-04-07T13:51:28.258Z,1.17
2023-04-07T13:53:56.322Z,1.80
2023-04-07T13:56:24.251Z,1.77
2023-04-07T13:58:52.668Z,2.03
2023-04-07T14:01:20.632Z,1.67
2023-04-07T14:03:49.692Z,0.87
2023-04-07T14:06:22.914Z,1.33
2023-04-07T14:08:51.222Z,1.67
2023-04-07T14:11:19.368Z,0.83
2023-04-07T14:13:47.960Z,1.53
2023-04-07T14:16:16.157Z,0.83
2023-04-07T14:18:44.168Z,1.90
2023-04-07T14:21:12.079Z,1.63
2023-04-07T14:23:42.456Z,2.13
2023-04-07T14:26:11.269Z,0.50
2023-04-07T14:28:39.269Z,0.53
2023-04-07T14:31:07.507Z,0.97
2023-04-07T14:33:35.673Z,2.20
2023-04-07T14:36:03.619Z,0.77
2023-04-07T14:38:32.007Z,0.77
2023-04-07T14:43:34.293Z,0.60
2023-04-07T14:46:02.263Z,2.13
2023-04-07T14:48:30.191Z,2.03
2023-04-07T14:51:08.684Z,1.43
2023-04-07T14:53:37.443Z,0.83
2023-04-07T14:56:07.415Z,2.20
2023-04-07T14:58:37.571Z,0.93
2023-04-07T15:01:06.499Z,1.70
2023-04-07T15:03:35.059Z,0.73
2023-04-07T15:06:03.142Z,1.00
2023-04-07T15:08:31.053Z,1.80
2023-04-07T15:10:58.960Z,2.87
2023-04-07T15:13:28.460Z,1.73
2023-04-07T15:15:56.436Z,2.03
2023-04-07T15:18:24.484Z,1.30
2023-04-07T15:20:52.429Z,1.93
2023-04-07T15:23:20.364Z,1.13
2023-04-07T15:25:51.458Z,1.33
2023-04-07T15:28:19.362Z,1.60
2023-04-07T15:30:48.661Z,1.37
2023-04-07T15:33:16.632Z,2.07
2023-04-07T15:35:44.963Z,0.93
2023-04-07T15:38:12.967Z,2.70
2023-04-07T15:40:41.240Z,3.13
2023-04-07T15:43:11.274Z,0.70
2023-04-07T15:45:43.459Z,1.03
2023-04-07T15:48:13.376Z,0.60
2023-04-07T15:50:41.498Z,0.80
2023-04-07T15:53:09.381Z,1.00
2023-04-07T15:55:37.739Z,2.00
2023-04-07T15:58:05.853Z,2.70
2023-04-07T16:00:34.961Z,0.83
2023-04-07T16:03:03.353Z,2.33
2023-04-07T16:05:32.824Z,0.80
2023-04-07T16:08:00.710Z,0.70
2023-04-07T16:10:28.708Z,0.70
2023-04-07T16:12:56.623Z,1.57
2023-04-07T16:15:38.753Z,2.93
2023-04-07T16:18:08.956Z,1.33
2023-04-07T16:20:38.317Z,2.60
2023-04-07T16:23:06.297Z,2.90
2023-04-07T16:25:34.207Z,1.63
2023-04-07T16:28:02.122Z,2.10
2023-04-07T16:30:30.093Z,1.57
2023-04-07T16:33:00.264Z,1.43
2023-04-07T16:35:29.328Z,1.70
2023-04-07T16:38:01.808Z,1.83
2023-04-07T16:40:29.783Z,1.80
2023-04-07T16:42:57.734Z,1.93
2023-04-07T16:45:25.790Z,1.63
2023-04-07T16:47:53.817Z,0.80
2023-04-07T16:50:22.070Z,0.70
2023-04-07T16:52:49.979Z,1.70
2023-04-07T16:55:19.429Z,4.10
2023-04-07T16:57:48.418Z,1.13
2023-04-07T17:00:16.590Z,1.87
2023-04-07T17:02:44.648Z,1.30
2023-04-07T17:05:12.705Z,1.27
2023-04-07T17:07:40.600Z,2.53
2023-04-07T17:10:09.000Z,1.27
2023-04-07T17:12:38.336Z,0.70
2023-04-07T17:15:06.552Z,1.40
2023-04-07T17:17:34.501Z,1.73
2023-04-07T17:20:02.491Z,0.90
2023-04-07T17:22:30.427Z,1.10
2023-04-07T17:24:58.398Z,2.23
2023-04-07T17:27:26.359Z,1.73
2023-04-07T17:29:56.054Z,1.20
2023-04-07T17:32:24.037Z,1.67
2023-04-07T17:34:52.179Z,1.70
2023-04-07T17:37:20.134Z,5.50
2023-04-07T17:39:48.250Z,1.73
2023-04-07T17:42:16.249Z,1.70
2023-04-07T17:44:44.170Z,0.63
2023-04-07T17:47:13.607Z,1.00
2023-04-07T17:49:42.326Z,1.33
2023-04-07T17:52:10.285Z,1.07
2023-04-07T17:54:38.204Z,1.67
2023-04-07T17:57:06.394Z,0.90
2023-04-07T17:59:34.340Z,1.70
2023-04-07T18:02:08.908Z,0.77
2023-04-07T18:04:38.799Z,0.77
2023-04-07T18:07:06.921Z,0.83
2023-04-07T18:09:35.181Z,0.80
2023-04-07T18:12:03.224Z,2.13
2023-04-07T18:14:31.098Z,2.53
2023-04-07T18:16:59.056Z,1.53
2023-04-07T18:19:28.400Z,2.70
2023-04-07T18:21:57.771Z,1.57
2023-04-07T18:24:25.734Z,3.67
2023-04-07T18:26:53.646Z,1.43
2023-04-07T18:29:21.551Z,2.13
2023-04-07T18:31:49.513Z,2.90
2023-04-07T18:34:17.580Z,2.40
2023-04-07T18:36:45.579Z,3.10
2023-04-07T18:39:14.892Z,2.30
2023-04-07T18:41:44.864Z,1.27
2023-04-07T18:44:12.892Z,1.50
2023-04-07T18:46:41.629Z,1.33
2023-04-07T18:49:10.327Z,1.20
2023-04-07T18:51:38.320Z,1.63
2023-04-07T18:54:06.401Z,3.17
2023-04-07T18:56:35.731Z,2.17
2023-04-07T18:59:04.263Z,1.30
2023-04-07T19:01:32.454Z,0.97
2023-04-07T19:04:01.517Z,1.40
2023-04-07T19:06:30.587Z,1.20
2023-04-07T19:08:58.815Z,1.00
2023-04-07T19:11:27.264Z,0.93
2023-04-07T19:13:56.718Z,1.10
2023-04-07T19:16:25.040Z,1.43
2023-04-07T19:18:53.344Z,1.57
2023-04-07T19:21:21.347Z,2.83
2023-04-07T19:23:49.486Z,1.63
2023-04-07T19:26:17.675Z,2.77
2023-04-07T19:28:46.399Z,1.83
2023-04-07T19:31:15.775Z,1.40
2023-04-07T19:33:44.141Z,1.47
2023-04-07T19:36:12.196Z,1.63
2023-04-07T19:38:40.113Z,2.33
2023-04-07T19:41:08.074Z,3.50
2023-04-07T19:43:36.346Z,1.70
2023-04-07T19:46:05.101Z,1.23
2023-04-07T19:48:34.513Z,1.60
2023-04-07T19:51:02.476Z,2.77
2023-04-07T19:53:30.413Z,1.30
2023-04-07T19:55:58.304Z,1.40
2023-04-07T19:58:26.276Z,9.43
2023-04-07T20:00:55.312Z,2.83
2023-04-07T20:03:23.472Z,2.00
2023-04-07T20:05:53.335Z,2.17
2023-04-07T20:08:21.527Z,2.97
2023-04-07T20:10:51.685Z,1.57
2023-04-07T20:13:20.539Z,1.33
2023-04-07T20:15:50.151Z,3.10
2023-04-07T20:18:18.744Z,1.53
2023-04-07T20:20:47.507Z,5.80
2023-04-07T20:23:19.297Z,1.57
2023-04-07T20:25:47.174Z,1.27
2023-04-07T20:28:15.096Z,2.60
2023-04-07T20:30:42.998Z,1.97
2023-04-07T20:33:10.915Z,1.60
2023-04-07T20:35:38.889Z,1.90
2023-04-07T20:38:07.034Z,1.53
2023-04-07T20:40:37.051Z,1.47
2023-04-07T20:43:05.135Z,3.60
2023-04-07T20:45:33.327Z,1.40
2023-04-07T20:48:01.630Z,1.40
2023-04-07T20:50:29.805Z,1.60
2023-04-07T20:52:57.713Z,2.73
2023-04-07T20:55:26.112Z,1.40
2023-04-07T20:57:55.456Z,1.37
2023-04-07T21:00:23.405Z,2.37
2023-04-07T21:02:51.572Z,1.50
2023-04-07T21:05:20.528Z,2.00
2023-04-07T21:07:48.596Z,2.53
2023-04-07T21:10:16.610Z,3.13
2023-04-07T21:12:44.561Z,1.43
2023-04-07T21:15:14.832Z,2.07
2023-04-07T21:17:42.835Z,4.40
2023-04-07T21:20:11.711Z,1.50
2023-04-07T21:22:39.801Z,3.43
2023-04-07T21:25:08.918Z,1.47
2023-04-07T21:27:38.406Z,1.27
2023-04-07T21:30:07.024Z,2.10
2023-04-07T21:32:36.926Z,2.70
2023-04-07T21:35:05.007Z,2.47
2023-04-07T21:37:32.937Z,1.60
2023-04-07T21:40:00.908Z,2.23
2023-04-07T21:42:28.955Z,1.57
2023-04-07T21:44:57.233Z,2.10
2023-04-07T21:47:25.138Z,2.53
2023-04-07T21:49:54.848Z,1.57
2023-04-07T21:52:22.821Z,2.17
2023-04-07T21:54:50.703Z,2.60
2023-04-07T21:57:18.634Z,3.97
2023-04-07T21:59:46.582Z,1.97
2023-04-07T22:02:14.919Z,2.20
2023-04-07T22:04:42.972Z,3.90
2023-04-07T22:07:12.341Z,4.07
2023-04-07T22:09:40.296Z,1.80
2023-04-07T22:12:08.203Z,1.87
2023-04-07T22:14:36.246Z,3.37
2023-04-07T22:17:04.264Z,2.53
2023-04-07T22:19:32.168Z,1.50
2023-04-07T22:22:00.134Z,2.20
2023-04-07T22:24:29.479Z,2.80
2023-04-07T22:26:57.485Z,3.83
2023-04-07T22:29:25.876Z,2.83
2023-04-07T22:31:53.859Z,4.40
2023-04-07T22:34:21.746Z,1.53
2023-04-07T22:36:49.674Z,2.23
2023-04-07T22:39:17.767Z,6.13
2023-04-07T22:41:47.065Z,1.83
2023-04-07T22:44:14.973Z,3.40
2023-04-07T22:46:42.953Z,5.23
2023-04-07T22:49:10.864Z,4.37
2023-04-07T22:51:38.844Z,2.57
2023-04-07T22:54:06.842Z,1.87
2023-04-07T22:56:34.778Z,2.97
2023-04-07T22:59:05.876Z,2.17
2023-04-07T23:01:34.146Z,2.07
2023-04-07T23:04:02.252Z,1.53
2023-04-07T23:06:30.227Z,3.30
2023-04-07T23:08:58.123Z,1.73
2023-04-07T23:11:26.134Z,2.17
2023-04-07T23:13:54.078Z,2.27
2023-04-07T23:16:23.510Z,2.10
2023-04-07T23:18:51.691Z,2.30
2023-04-07T23:21:20.204Z,2.23
2023-04-07T23:23:48.852Z,1.80
2023-04-07T23:26:16.792Z,3.13
2023-04-07T23:28:44.693Z,2.50
2023-04-07T23:31:12.647Z,3.07
2023-04-07T23:33:41.937Z,2.13
2023-04-07T23:36:09.834Z,2.27
2023-04-07T23:38:39.693Z,3.97
2023-04-07T23:41:07.842Z,2.97
2023-04-07T23:43:35.839Z,2.03
2023-04-07T23:46:04.218Z,1.90
2023-04-07T23:48:32.419Z,2.20
2023-04-07T23:51:01.828Z,1.77
2023-04-07T23:53:29.765Z,2.70
2023-04-07T23:55:57.672Z,1.70
2023-04-07T23:58:25.619Z,3.80
